sensor_id;sensor_type;location;lat;lon;timestamp;temperature;humidity
18160;DHT22;9205;52.032;4.314;2023-02-28T00:00:35;3.60;99.90
18160;DHT22;9205;52.032;4.314;2023-02-28T00:03:07;3.60;1.00
18160;DHT22;9205;52.032;4.314;2023-02-28T00:05:38;3.60;1.00
18160;DHT22;9205;52.032;4.314;2023-02-28T00:08:11;3.70;1.00
18160;DHT22;9205;52.032;4.314;2023-02-28T00:10:39;3.70;1.00
18160;DHT22;9205;52.032;4.314;2023-02-28T00:13:07;3.80;1.00
18160;DHT22;9205;52.032;4.314;2023-02-28T00:15:38;3.80;1.00
18160;DHT22;9205;52.032;4.314;2023-02-28T00:18:07;3.80;1.00
18160;DHT22;9205;52.032;4.314;2023-02-28T00:20:37;3.80;1.00
18160;DHT22;9205;52.032;4.314;2023-02-28T00:23:06;4.00;1.00
18160;DHT22;9205;52.032;4.314;2023-02-28T00:25:38;4.00;1.00
18160;DHT22;9205;52.032;4.314;2023-02-28T00:28:09;4.00;1.00
18160;DHT22;9205;52.032;4.314;2023-02-28T00:30:36;4.00;1.00
18160;DHT22;9205;52.032;4.314;2023-02-28T00:33:04;4.00;1.00
18160;DHT22;9205;52.032;4.314;2023-02-28T00:35:33;4.10;1.00
18160;DHT22;9205;52.032;4.314;2023-02-28T00:38:01;4.00;1.00
18160;DHT22;9205;52.032;4.314;2023-02-28T00:40:29;4.10;1.00
18160;DHT22;9205;52.032;4.314;2023-02-28T00:42:57;4.10;99.90
18160;DHT22;9205;52.032;4.314;2023-02-28T00:45:27;4.20;99.90
18160;DHT22;9205;52.032;4.314;2023-02-28T00:47:57;4.30;99.90
18160;DHT22;9205;52.032;4.314;2023-02-28T00:50:26;4.30;54.50
18160;DHT22;9205;52.032;4.314;2023-02-28T00:52:56;4.40;1.00
18160;DHT22;9205;52.032;4.314;2023-02-28T00:55:24;4.40;1.00
18160;DHT22;9205;52.032;4.314;2023-02-28T00:57:52;4.40;1.00
18160;DHT22;9205;52.032;4.314;2023-02-28T01:00:22;4.40;1.00
18160;DHT22;9205;52.032;4.314;2023-02-28T01:02:56;4.40;1.00
18160;DHT22;9205;52.032;4.314;2023-02-28T01:05:23;4.40;1.00
18160;DHT22;9205;52.032;4.314;2023-02-28T01:07:56;4.40;1.00
18160;DHT22;9205;52.032;4.314;2023-02-28T01:10:25;4.40;1.00
18160;DHT22;9205;52.032;4.314;2023-02-28T01:13:00;4.50;1.00
18160;DHT22;9205;52.032;4.314;2023-02-28T01:15:50;4.50;1.00
18160;DHT22;9205;52.032;4.314;2023-02-28T01:18:19;4.50;1.00
18160;DHT22;9205;52.032;4.314;2023-02-28T01:20:50;4.60;1.00
18160;DHT22;9205;52.032;4.314;2023-02-28T01:23:18;4.60;1.00
18160;DHT22;9205;52.032;4.314;2023-02-28T01:25:48;4.60;1.00
18160;DHT22;9205;52.032;4.314;2023-02-28T01:28:16;4.60;1.00
18160;DHT22;9205;52.032;4.314;2023-02-28T01:30:47;4.60;1.00
18160;DHT22;9205;52.032;4.314;2023-02-28T01:33:16;4.70;1.00
18160;DHT22;9205;52.032;4.314;2023-02-28T01:35:44;4.70;1.00
18160;DHT22;9205;52.032;4.314;2023-02-28T01:38:13;4.70;1.00
18160;DHT22;9205;52.032;4.314;2023-02-28T01:40:41;4.60;1.00
18160;DHT22;9205;52.032;4.314;2023-02-28T01:43:19;4.70;1.00
18160;DHT22;9205;52.032;4.314;2023-02-28T01:45:52;4.70;1.00
18160;DHT22;9205;52.032;4.314;2023-02-28T01:48:24;4.70;1.00
18160;DHT22;9205;52.032;4.314;2023-02-28T01:50:55;4.60;1.00
18160;DHT22;9205;52.032;4.314;2023-02-28T01:53:32;4.70;1.00
18160;DHT22;9205;52.032;4.314;2023-02-28T01:56:06;4.70;1.00
18160;DHT22;9205;52.032;4.314;2023-02-28T01:58:39;4.70;1.00
18160;DHT22;9205;52.032;4.314;2023-02-28T02:01:09;4.70;1.00
18160;DHT22;9205;52.032;4.314;2023-02-28T02:03:48;4.70;1.00
18160;DHT22;9205;52.032;4.314;2023-02-28T02:06:21;4.80;1.00
18160;DHT22;9205;52.032;4.314;2023-02-28T02:08:52;4.70;1.00
18160;DHT22;9205;52.032;4.314;2023-02-28T02:11:24;4.80;1.00
18160;DHT22;9205;52.032;4.314;2023-02-28T02:17:23;4.60;1.00
18160;DHT22;9205;52.032;4.314;2023-02-28T02:20:23;4.60;1.00
18160;DHT22;9205;52.032;4.314;2023-02-28T02:26:54;4.60;1.00
18160;DHT22;9205;52.032;4.314;2023-02-28T02:30:08;4.70;1.00
18160;DHT22;9205;52.032;4.314;2023-02-28T02:33:09;4.60;99.90
18160;DHT22;9205;52.032;4.314;2023-02-28T02:35:56;4.70;99.90
18160;DHT22;9205;52.032;4.314;2023-02-28T02:38:34;4.60;99.90
18160;DHT22;9205;52.032;4.314;2023-02-28T02:41:16;4.60;99.90
18160;DHT22;9205;52.032;4.314;2023-02-28T02:43:52;4.60;1.00
18160;DHT22;9205;52.032;4.314;2023-02-28T02:46:28;4.60;1.00
18160;DHT22;9205;52.032;4.314;2023-02-28T02:48:59;4.60;1.00
18160;DHT22;9205;52.032;4.314;2023-02-28T02:51:33;4.70;1.00
18160;DHT22;9205;52.032;4.314;2023-02-28T02:54:13;4.70;1.00
18160;DHT22;9205;52.032;4.314;2023-02-28T02:56:49;4.70;1.00
18160;DHT22;9205;52.032;4.314;2023-02-28T02:59:21;4.80;1.00
18160;DHT22;9205;52.032;4.314;2023-02-28T03:01:53;4.70;1.00
18160;DHT22;9205;52.032;4.314;2023-02-28T03:04:26;4.70;1.00
18160;DHT22;9205;52.032;4.314;2023-02-28T03:07:21;4.70;1.00
18160;DHT22;9205;52.032;4.314;2023-02-28T03:09:53;4.70;1.00
18160;DHT22;9205;52.032;4.314;2023-02-28T03:12:25;4.70;1.00
18160;DHT22;9205;52.032;4.314;2023-02-28T03:15:05;4.70;1.00
18160;DHT22;9205;52.032;4.314;2023-02-28T03:18:01;4.60;1.00
18160;DHT22;9205;52.032;4.314;2023-02-28T03:20:42;4.70;99.90
18160;DHT22;9205;52.032;4.314;2023-02-28T03:23:21;4.70;99.90
18160;DHT22;9205;52.032;4.314;2023-02-28T03:26:05;4.80;99.90
18160;DHT22;9205;52.032;4.314;2023-02-28T03:28:45;4.80;1.00
18160;DHT22;9205;52.032;4.314;2023-02-28T03:31:22;4.90;1.00
18160;DHT22;9205;52.032;4.314;2023-02-28T03:34:05;4.90;1.00
18160;DHT22;9205;52.032;4.314;2023-02-28T03:36:39;4.90;1.00
18160;DHT22;9205;52.032;4.314;2023-02-28T03:39:16;4.80;1.00
18160;DHT22;9205;52.032;4.314;2023-02-28T03:41:54;4.80;1.00
18160;DHT22;9205;52.032;4.314;2023-02-28T03:44:40;4.90;1.00
18160;DHT22;9205;52.032;4.314;2023-02-28T03:47:16;4.90;1.00
18160;DHT22;9205;52.032;4.314;2023-02-28T03:49:52;4.90;1.00
18160;DHT22;9205;52.032;4.314;2023-02-28T03:52:26;4.90;1.00
18160;DHT22;9205;52.032;4.314;2023-02-28T03:55:02;4.90;1.00
18160;DHT22;9205;52.032;4.314;2023-02-28T03:57:40;5.00;1.00
18160;DHT22;9205;52.032;4.314;2023-02-28T04:00:20;5.00;1.00
18160;DHT22;9205;52.032;4.314;2023-02-28T04:02:54;5.00;1.00
18160;DHT22;9205;52.032;4.314;2023-02-28T04:05:22;5.00;1.00
18160;DHT22;9205;52.032;4.314;2023-02-28T04:07:51;5.00;1.00
18160;DHT22;9205;52.032;4.314;2023-02-28T04:10:20;5.10;1.00
18160;DHT22;9205;52.032;4.314;2023-02-28T04:12:49;5.10;1.00
18160;DHT22;9205;52.032;4.314;2023-02-28T04:15:17;5.10;1.00
18160;DHT22;9205;52.032;4.314;2023-02-28T04:17:51;5.10;1.00
18160;DHT22;9205;52.032;4.314;2023-02-28T04:20:19;5.00;1.00
18160;DHT22;9205;52.032;4.314;2023-02-28T04:22:46;5.00;1.00
18160;DHT22;9205;52.032;4.314;2023-02-28T04:25:14;5.00;1.00
18160;DHT22;9205;52.032;4.314;2023-02-28T04:27:44;5.10;1.00
18160;DHT22;9205;52.032;4.314;2023-02-28T04:30:14;5.10;1.00
18160;DHT22;9205;52.032;4.314;2023-02-28T04:32:42;5.20;1.00
18160;DHT22;9205;52.032;4.314;2023-02-28T04:35:09;5.00;1.00
18160;DHT22;9205;52.032;4.314;2023-02-28T04:37:39;5.20;1.00
18160;DHT22;9205;52.032;4.314;2023-02-28T04:40:10;5.10;1.00
18160;DHT22;9205;52.032;4.314;2023-02-28T04:42:39;5.10;1.00
18160;DHT22;9205;52.032;4.314;2023-02-28T04:45:10;5.20;1.00
18160;DHT22;9205;52.032;4.314;2023-02-28T04:47:38;5.10;1.00
18160;DHT22;9205;52.032;4.314;2023-02-28T04:50:06;5.10;1.00
18160;DHT22;9205;52.032;4.314;2023-02-28T04:52:35;5.20;1.00
18160;DHT22;9205;52.032;4.314;2023-02-28T04:55:03;5.10;99.90
18160;DHT22;9205;52.032;4.314;2023-02-28T04:57:32;5.10;1.00
18160;DHT22;9205;52.032;4.314;2023-02-28T04:59:59;5.00;1.00
18160;DHT22;9205;52.032;4.314;2023-02-28T05:02:34;5.00;1.00
18160;DHT22;9205;52.032;4.314;2023-02-28T05:05:01;5.10;1.00
18160;DHT22;9205;52.032;4.314;2023-02-28T05:07:29;5.00;57.20
18160;DHT22;9205;52.032;4.314;2023-02-28T05:09:57;5.00;99.90
18160;DHT22;9205;52.032;4.314;2023-02-28T05:12:25;5.10;99.90
18160;DHT22;9205;52.032;4.314;2023-02-28T05:14:53;5.00;99.90
18160;DHT22;9205;52.032;4.314;2023-02-28T05:17:20;5.00;99.90
18160;DHT22;9205;52.032;4.314;2023-02-28T05:19:49;4.90;1.00
18160;DHT22;9205;52.032;4.314;2023-02-28T05:22:20;5.00;1.00
18160;DHT22;9205;52.032;4.314;2023-02-28T05:24:48;4.90;1.00
18160;DHT22;9205;52.032;4.314;2023-02-28T05:27:20;5.00;1.00
18160;DHT22;9205;52.032;4.314;2023-02-28T05:29:54;5.00;1.00
18160;DHT22;9205;52.032;4.314;2023-02-28T05:32:21;4.80;1.00
18160;DHT22;9205;52.032;4.314;2023-02-28T05:34:51;4.90;1.00
18160;DHT22;9205;52.032;4.314;2023-02-28T05:37:18;4.80;1.00
18160;DHT22;9205;52.032;4.314;2023-02-28T05:39:46;4.90;1.00
18160;DHT22;9205;52.032;4.314;2023-02-28T05:42:17;4.90;1.00
18160;DHT22;9205;52.032;4.314;2023-02-28T05:44:44;4.80;1.00
18160;DHT22;9205;52.032;4.314;2023-02-28T05:47:12;4.90;1.00
18160;DHT22;9205;52.032;4.314;2023-02-28T05:49:41;4.80;1.00
18160;DHT22;9205;52.032;4.314;2023-02-28T05:52:10;4.80;1.00
18160;DHT22;9205;52.032;4.314;2023-02-28T05:54:38;4.80;1.00
18160;DHT22;9205;52.032;4.314;2023-02-28T05:57:06;4.70;1.00
18160;DHT22;9205;52.032;4.314;2023-02-28T05:59:34;4.60;1.00
18160;DHT22;9205;52.032;4.314;2023-02-28T06:02:05;4.70;1.00
18160;DHT22;9205;52.032;4.314;2023-02-28T06:04:44;4.60;1.00
18160;DHT22;9205;52.032;4.314;2023-02-28T06:07:14;4.80;1.00
18160;DHT22;9205;52.032;4.314;2023-02-28T06:09:43;4.70;1.00
18160;DHT22;9205;52.032;4.314;2023-02-28T06:12:10;4.70;1.00
18160;DHT22;9205;52.032;4.314;2023-02-28T06:14:40;4.70;99.90
18160;DHT22;9205;52.032;4.314;2023-02-28T06:17:08;4.70;99.90
18160;DHT22;9205;52.032;4.314;2023-02-28T06:19:37;4.60;99.90
18160;DHT22;9205;52.032;4.314;2023-02-28T06:22:07;4.60;99.90
18160;DHT22;9205;52.032;4.314;2023-02-28T06:24:35;4.50;17.50
18160;DHT22;9205;52.032;4.314;2023-02-28T06:27:04;4.60;1.00
18160;DHT22;9205;52.032;4.314;2023-02-28T06:29:35;4.50;1.00
18160;DHT22;9205;52.032;4.314;2023-02-28T06:32:06;4.40;1.00
18160;DHT22;9205;52.032;4.314;2023-02-28T06:34:35;4.40;99.90
18160;DHT22;9205;52.032;4.314;2023-02-28T06:37:03;4.40;99.90
18160;DHT22;9205;52.032;4.314;2023-02-28T06:39:31;4.40;99.90
18160;DHT22;9205;52.032;4.314;2023-02-28T06:42:03;4.50;99.90
18160;DHT22;9205;52.032;4.314;2023-02-28T06:44:30;4.40;99.90
18160;DHT22;9205;52.032;4.314;2023-02-28T06:47:01;4.40;99.90
18160;DHT22;9205;52.032;4.314;2023-02-28T06:49:30;4.40;56.30
18160;DHT22;9205;52.032;4.314;2023-02-28T06:52:00;4.40;1.00
18160;DHT22;9205;52.032;4.314;2023-02-28T06:54:28;4.30;1.00
18160;DHT22;9205;52.032;4.314;2023-02-28T06:57:02;4.40;1.00
18160;DHT22;9205;52.032;4.314;2023-02-28T06:59:29;4.40;1.00
18160;DHT22;9205;52.032;4.314;2023-02-28T07:01:57;4.30;1.00
18160;DHT22;9205;52.032;4.314;2023-02-28T07:04:26;4.20;1.00
18160;DHT22;9205;52.032;4.314;2023-02-28T07:06:54;4.20;1.00
18160;DHT22;9205;52.032;4.314;2023-02-28T07:09:22;4.20;1.00
18160;DHT22;9205;52.032;4.314;2023-02-28T07:11:50;4.20;1.00
18160;DHT22;9205;52.032;4.314;2023-02-28T07:14:19;4.20;1.00
18160;DHT22;9205;52.032;4.314;2023-02-28T07:16:47;4.10;1.00
18160;DHT22;9205;52.032;4.314;2023-02-28T07:19:16;4.10;1.00
18160;DHT22;9205;52.032;4.314;2023-02-28T07:21:43;4.00;1.00
18160;DHT22;9205;52.032;4.314;2023-02-28T07:24:10;4.10;6.60
18160;DHT22;9205;52.032;4.314;2023-02-28T07:26:41;4.00;99.90
18160;DHT22;9205;52.032;4.314;2023-02-28T07:29:16;3.90;99.90
18160;DHT22;9205;52.032;4.314;2023-02-28T07:31:44;3.90;99.90
18160;DHT22;9205;52.032;4.314;2023-02-28T07:34:12;3.80;1.00
18160;DHT22;9205;52.032;4.314;2023-02-28T07:36:40;3.80;1.00
18160;DHT22;9205;52.032;4.314;2023-02-28T07:39:08;3.70;1.00
18160;DHT22;9205;52.032;4.314;2023-02-28T07:41:36;3.60;1.00
18160;DHT22;9205;52.032;4.314;2023-02-28T07:44:09;3.60;1.00
18160;DHT22;9205;52.032;4.314;2023-02-28T07:46:38;3.50;1.00
18160;DHT22;9205;52.032;4.314;2023-02-28T07:49:07;3.40;1.00
18160;DHT22;9205;52.032;4.314;2023-02-28T07:51:36;3.40;65.70
18160;DHT22;9205;52.032;4.314;2023-02-28T07:54:04;3.40;99.90
18160;DHT22;9205;52.032;4.314;2023-02-28T07:56:32;3.40;99.90
18160;DHT22;9205;52.032;4.314;2023-02-28T07:59:00;3.40;1.00
18160;DHT22;9205;52.032;4.314;2023-02-28T08:01:28;3.30;1.00
18160;DHT22;9205;52.032;4.314;2023-02-28T08:03:55;3.30;1.00
18160;DHT22;9205;52.032;4.314;2023-02-28T08:06:25;3.20;1.00
18160;DHT22;9205;52.032;4.314;2023-02-28T08:08:59;3.20;1.00
18160;DHT22;9205;52.032;4.314;2023-02-28T08:11:27;3.10;1.00
18160;DHT22;9205;52.032;4.314;2023-02-28T08:13:54;3.30;1.00
18160;DHT22;9205;52.032;4.314;2023-02-28T08:16:24;3.00;1.00
18160;DHT22;9205;52.032;4.314;2023-02-28T08:18:54;3.10;99.90
18160;DHT22;9205;52.032;4.314;2023-02-28T08:21:23;3.20;99.90
18160;DHT22;9205;52.032;4.314;2023-02-28T08:23:51;3.00;99.90
18160;DHT22;9205;52.032;4.314;2023-02-28T08:26:19;3.10;1.00
18160;DHT22;9205;52.032;4.314;2023-02-28T08:28:47;3.00;1.00
18160;DHT22;9205;52.032;4.314;2023-02-28T08:31:16;3.10;1.00
18160;DHT22;9205;52.032;4.314;2023-02-28T08:33:45;2.90;1.00
18160;DHT22;9205;52.032;4.314;2023-02-28T08:36:14;3.00;1.00
18160;DHT22;9205;52.032;4.314;2023-02-28T08:38:43;2.80;1.00
18160;DHT22;9205;52.032;4.314;2023-02-28T08:41:12;2.70;1.00
18160;DHT22;9205;52.032;4.314;2023-02-28T08:43:45;2.70;1.00
18160;DHT22;9205;52.032;4.314;2023-02-28T08:46:23;2.70;1.00
18160;DHT22;9205;52.032;4.314;2023-02-28T08:48:52;2.90;1.00
18160;DHT22;9205;52.032;4.314;2023-02-28T08:51:21;2.70;1.00
18160;DHT22;9205;52.032;4.314;2023-02-28T08:53:54;2.90;1.00
18160;DHT22;9205;52.032;4.314;2023-02-28T08:56:23;2.90;1.00
18160;DHT22;9205;52.032;4.314;2023-02-28T08:58:53;2.80;1.00
18160;DHT22;9205;52.032;4.314;2023-02-28T09:01:24;2.60;1.00
18160;DHT22;9205;52.032;4.314;2023-02-28T09:03:55;2.80;1.00
18160;DHT22;9205;52.032;4.314;2023-02-28T09:06:25;2.70;1.00
18160;DHT22;9205;52.032;4.314;2023-02-28T09:09:03;2.90;1.00
18160;DHT22;9205;52.032;4.314;2023-02-28T09:11:32;3.00;1.00
18160;DHT22;9205;52.032;4.314;2023-02-28T09:14:00;3.10;1.00
18160;DHT22;9205;52.032;4.314;2023-02-28T09:16:30;3.00;1.00
18160;DHT22;9205;52.032;4.314;2023-02-28T09:18:58;3.00;1.00
18160;DHT22;9205;52.032;4.314;2023-02-28T09:21:26;3.00;1.00
18160;DHT22;9205;52.032;4.314;2023-02-28T09:23:58;3.10;1.00
18160;DHT22;9205;52.032;4.314;2023-02-28T09:26:27;3.10;1.00
18160;DHT22;9205;52.032;4.314;2023-02-28T09:28:55;3.20;1.00
18160;DHT22;9205;52.032;4.314;2023-02-28T09:31:27;3.00;1.00
18160;DHT22;9205;52.032;4.314;2023-02-28T09:33:56;3.30;1.00
18160;DHT22;9205;52.032;4.314;2023-02-28T09:36:26;3.30;1.00
18160;DHT22;9205;52.032;4.314;2023-02-28T09:38:58;3.20;1.00
18160;DHT22;9205;52.032;4.314;2023-02-28T09:41:27;3.20;1.00
18160;DHT22;9205;52.032;4.314;2023-02-28T09:44:07;3.20;1.00
18160;DHT22;9205;52.032;4.314;2023-02-28T09:46:48;3.40;1.00
18160;DHT22;9205;52.032;4.314;2023-02-28T09:49:24;3.60;1.00
18160;DHT22;9205;52.032;4.314;2023-02-28T09:52:01;3.50;1.00
18160;DHT22;9205;52.032;4.314;2023-02-28T09:54:33;3.50;1.00
18160;DHT22;9205;52.032;4.314;2023-02-28T09:57:07;3.70;1.00
18160;DHT22;9205;52.032;4.314;2023-02-28T09:59:51;3.80;1.00
18160;DHT22;9205;52.032;4.314;2023-02-28T10:03:19;3.60;1.00
18160;DHT22;9205;52.032;4.314;2023-02-28T10:05:58;3.70;1.00
18160;DHT22;9205;52.032;4.314;2023-02-28T10:08:35;3.60;1.00
18160;DHT22;9205;52.032;4.314;2023-02-28T10:11:16;3.60;1.00
18160;DHT22;9205;52.032;4.314;2023-02-28T10:13:51;3.80;1.00
18160;DHT22;9205;52.032;4.314;2023-02-28T10:16:29;3.60;1.00
18160;DHT22;9205;52.032;4.314;2023-02-28T10:19:11;3.60;1.00
18160;DHT22;9205;52.032;4.314;2023-02-28T10:21:47;3.90;1.00
18160;DHT22;9205;52.032;4.314;2023-02-28T10:24:26;3.60;1.00
18160;DHT22;9205;52.032;4.314;2023-02-28T10:27:05;3.60;1.00
18160;DHT22;9205;52.032;4.314;2023-02-28T10:29:46;3.80;1.00
18160;DHT22;9205;52.032;4.314;2023-02-28T10:32:19;4.00;1.00
18160;DHT22;9205;52.032;4.314;2023-02-28T10:34:51;4.10;1.00
18160;DHT22;9205;52.032;4.314;2023-02-28T10:37:21;4.10;1.00
18160;DHT22;9205;52.032;4.314;2023-02-28T10:39:49;4.20;1.00
18160;DHT22;9205;52.032;4.314;2023-02-28T10:42:23;4.20;1.00
18160;DHT22;9205;52.032;4.314;2023-02-28T10:45:22;4.20;1.00
18160;DHT22;9205;52.032;4.314;2023-02-28T10:48:45;4.20;1.00
18160;DHT22;9205;52.032;4.314;2023-02-28T10:51:34;4.10;1.00
18160;DHT22;9205;52.032;4.314;2023-02-28T10:54:05;4.20;99.90
18160;DHT22;9205;52.032;4.314;2023-02-28T10:56:32;4.00;99.90
18160;DHT22;9205;52.032;4.314;2023-02-28T10:59:03;3.90;1.00
18160;DHT22;9205;52.032;4.314;2023-02-28T11:01:53;4.00;99.90
18160;DHT22;9205;52.032;4.314;2023-02-28T11:04:35;4.00;1.00
18160;DHT22;9205;52.032;4.314;2023-02-28T11:07:10;4.20;1.00
18160;DHT22;9205;52.032;4.314;2023-02-28T11:09:50;4.20;1.00
18160;DHT22;9205;52.032;4.314;2023-02-28T11:12:25;4.20;99.90
18160;DHT22;9205;52.032;4.314;2023-02-28T11:14:58;4.20;1.00
18160;DHT22;9205;52.032;4.314;2023-02-28T11:17:31;4.20;99.90
18160;DHT22;9205;52.032;4.314;2023-02-28T11:20:03;4.40;7.30
18160;DHT22;9205;52.032;4.314;2023-02-28T11:22:35;4.50;99.90
18160;DHT22;9205;52.032;4.314;2023-02-28T11:25:08;4.50;1.00
18160;DHT22;9205;52.032;4.314;2023-02-28T11:27:47;4.50;99.90
18160;DHT22;9205;52.032;4.314;2023-02-28T11:30:31;4.60;99.90
18160;DHT22;9205;52.032;4.314;2023-02-28T11:33:01;4.50;1.00
18160;DHT22;9205;52.032;4.314;2023-02-28T11:35:50;4.70;1.00
18160;DHT22;9205;52.032;4.314;2023-02-28T11:38:19;4.90;1.00
18160;DHT22;9205;52.032;4.314;2023-02-28T11:41:04;5.00;1.00
18160;DHT22;9205;52.032;4.314;2023-02-28T11:43:51;5.20;99.90
18160;DHT22;9205;52.032;4.314;2023-02-28T11:46:35;5.20;1.00
18160;DHT22;9205;52.032;4.314;2023-02-28T11:49:21;5.30;1.00
18160;DHT22;9205;52.032;4.314;2023-02-28T11:52:00;5.40;99.90
18160;DHT22;9205;52.032;4.314;2023-02-28T11:55:04;5.50;99.90
18160;DHT22;9205;52.032;4.314;2023-02-28T11:58:05;5.60;99.90
18160;DHT22;9205;52.032;4.314;2023-02-28T12:00:57;5.60;99.90
18160;DHT22;9205;52.032;4.314;2023-02-28T12:03:43;5.80;89.70
18160;DHT22;9205;52.032;4.314;2023-02-28T12:06:29;5.60;1.00
18160;DHT22;9205;52.032;4.314;2023-02-28T12:09:10;5.50;1.00
18160;DHT22;9205;52.032;4.314;2023-02-28T12:11:53;5.50;1.00
18160;DHT22;9205;52.032;4.314;2023-02-28T12:14:50;5.60;1.00
18160;DHT22;9205;52.032;4.314;2023-02-28T12:17:36;5.80;1.00
18160;DHT22;9205;52.032;4.314;2023-02-28T12:20:25;5.90;1.00
18160;DHT22;9205;52.032;4.314;2023-02-28T12:23:19;5.70;1.00
18160;DHT22;9205;52.032;4.314;2023-02-28T12:26:05;5.80;1.00
18160;DHT22;9205;52.032;4.314;2023-02-28T12:28:42;5.90;1.00
18160;DHT22;9205;52.032;4.314;2023-02-28T12:31:18;6.00;1.00
18160;DHT22;9205;52.032;4.314;2023-02-28T12:33:52;6.10;1.00
18160;DHT22;9205;52.032;4.314;2023-02-28T12:36:27;6.20;1.00
18160;DHT22;9205;52.032;4.314;2023-02-28T12:39:01;6.20;1.00
18160;DHT22;9205;52.032;4.314;2023-02-28T12:41:39;6.30;1.00
18160;DHT22;9205;52.032;4.314;2023-02-28T12:44:17;6.10;1.00
18160;DHT22;9205;52.032;4.314;2023-02-28T12:46:55;6.20;1.00
18160;DHT22;9205;52.032;4.314;2023-02-28T12:49:33;6.20;1.00
18160;DHT22;9205;52.032;4.314;2023-02-28T12:52:06;6.20;1.00
18160;DHT22;9205;52.032;4.314;2023-02-28T12:54:43;6.30;1.00
18160;DHT22;9205;52.032;4.314;2023-02-28T12:57:21;6.40;1.00
18160;DHT22;9205;52.032;4.314;2023-02-28T13:00:03;6.30;1.00
18160;DHT22;9205;52.032;4.314;2023-02-28T13:02:57;6.30;1.00
18160;DHT22;9205;52.032;4.314;2023-02-28T13:05:59;6.40;1.00
18160;DHT22;9205;52.032;4.314;2023-02-28T13:09:03;6.50;1.00
18160;DHT22;9205;52.032;4.314;2023-02-28T13:11:40;6.40;1.00
18160;DHT22;9205;52.032;4.314;2023-02-28T13:14:24;6.50;1.00
18160;DHT22;9205;52.032;4.314;2023-02-28T13:17:01;6.70;1.00
18160;DHT22;9205;52.032;4.314;2023-02-28T13:19:42;6.80;1.00
18160;DHT22;9205;52.032;4.314;2023-02-28T13:22:36;6.70;1.00
18160;DHT22;9205;52.032;4.314;2023-02-28T13:36:24;7.00;1.00
18160;DHT22;9205;52.032;4.314;2023-02-28T13:38:40;7.00;1.00
18160;DHT22;9205;52.032;4.314;2023-02-28T13:41:43;7.10;1.00
18160;DHT22;9205;52.032;4.314;2023-02-28T13:44:19;7.00;99.90
18160;DHT22;9205;52.032;4.314;2023-02-28T13:47:24;7.00;99.90
18160;DHT22;9205;52.032;4.314;2023-02-28T13:50:15;7.10;99.90
18160;DHT22;9205;52.032;4.314;2023-02-28T13:53:34;7.00;99.90
18160;DHT22;9205;52.032;4.314;2023-02-28T13:56:34;7.00;99.90
18160;DHT22;9205;52.032;4.314;2023-02-28T13:59:22;7.10;99.90
18160;DHT22;9205;52.032;4.314;2023-02-28T14:02:10;7.00;99.90
18160;DHT22;9205;52.032;4.314;2023-02-28T14:05:02;6.80;99.90
18160;DHT22;9205;52.032;4.314;2023-02-28T14:07:38;6.90;99.90
18160;DHT22;9205;52.032;4.314;2023-02-28T14:10:25;7.00;99.90
18160;DHT22;9205;52.032;4.314;2023-02-28T14:13:02;7.00;99.90
18160;DHT22;9205;52.032;4.314;2023-02-28T14:15:55;6.80;99.90
18160;DHT22;9205;52.032;4.314;2023-02-28T14:18:27;7.10;99.90
18160;DHT22;9205;52.032;4.314;2023-02-28T14:21:03;7.10;99.90
18160;DHT22;9205;52.032;4.314;2023-02-28T14:27:09;7.50;99.90
18160;DHT22;9205;52.032;4.314;2023-02-28T14:33:28;7.40;99.90
18160;DHT22;9205;52.032;4.314;2023-02-28T14:36:12;7.40;99.90
18160;DHT22;9205;52.032;4.314;2023-02-28T14:38:48;7.20;99.90
18160;DHT22;9205;52.032;4.314;2023-02-28T14:41:22;7.50;99.90
18160;DHT22;9205;52.032;4.314;2023-02-28T14:43:55;7.30;99.90
18160;DHT22;9205;52.032;4.314;2023-02-28T14:46:30;7.30;99.90
18160;DHT22;9205;52.032;4.314;2023-02-28T14:49:04;7.40;99.90
18160;DHT22;9205;52.032;4.314;2023-02-28T14:51:35;7.60;99.90
18160;DHT22;9205;52.032;4.314;2023-02-28T14:54:05;7.60;99.90
18160;DHT22;9205;52.032;4.314;2023-02-28T14:56:36;7.70;99.90
18160;DHT22;9205;52.032;4.314;2023-02-28T14:59:24;7.50;99.90
18160;DHT22;9205;52.032;4.314;2023-02-28T15:02:20;7.60;99.90
18160;DHT22;9205;52.032;4.314;2023-02-28T15:04:54;7.60;99.90
18160;DHT22;9205;52.032;4.314;2023-02-28T15:07:32;7.60;99.90
18160;DHT22;9205;52.032;4.314;2023-02-28T15:10:13;7.50;99.90
18160;DHT22;9205;52.032;4.314;2023-02-28T15:12:51;7.40;99.90
18160;DHT22;9205;52.032;4.314;2023-02-28T15:15:23;7.30;99.90
18160;DHT22;9205;52.032;4.314;2023-02-28T15:17:56;7.30;99.90
18160;DHT22;9205;52.032;4.314;2023-02-28T15:20:30;7.30;99.90
18160;DHT22;9205;52.032;4.314;2023-02-28T15:23:00;7.20;99.90
18160;DHT22;9205;52.032;4.314;2023-02-28T15:25:28;7.20;99.90
18160;DHT22;9205;52.032;4.314;2023-02-28T15:27:57;7.20;99.90
18160;DHT22;9205;52.032;4.314;2023-02-28T15:30:26;7.10;99.90
18160;DHT22;9205;52.032;4.314;2023-02-28T15:33:17;7.10;99.90
18160;DHT22;9205;52.032;4.314;2023-02-28T15:35:47;7.20;99.90
18160;DHT22;9205;52.032;4.314;2023-02-28T15:38:25;7.20;99.90
18160;DHT22;9205;52.032;4.314;2023-02-28T15:40:57;7.10;99.90
18160;DHT22;9205;52.032;4.314;2023-02-28T15:43:27;7.10;99.90
18160;DHT22;9205;52.032;4.314;2023-02-28T15:46:02;7.00;99.90
18160;DHT22;9205;52.032;4.314;2023-02-28T15:48:53;7.00;99.90
18160;DHT22;9205;52.032;4.314;2023-02-28T15:51:26;7.10;99.90
18160;DHT22;9205;52.032;4.314;2023-02-28T15:54:16;7.00;99.90
18160;DHT22;9205;52.032;4.314;2023-02-28T15:57:00;7.10;99.90
18160;DHT22;9205;52.032;4.314;2023-02-28T15:59:36;7.00;99.90
18160;DHT22;9205;52.032;4.314;2023-02-28T16:02:16;7.00;99.90
18160;DHT22;9205;52.032;4.314;2023-02-28T16:05:12;7.00;99.90
18160;DHT22;9205;52.032;4.314;2023-02-28T16:07:47;6.90;99.90
18160;DHT22;9205;52.032;4.314;2023-02-28T16:10:18;6.90;99.90
18160;DHT22;9205;52.032;4.314;2023-02-28T16:12:46;6.80;99.90
18160;DHT22;9205;52.032;4.314;2023-02-28T16:15:19;6.80;99.90
18160;DHT22;9205;52.032;4.314;2023-02-28T16:17:58;6.80;99.90
18160;DHT22;9205;52.032;4.314;2023-02-28T16:20:29;6.70;99.90
18160;DHT22;9205;52.032;4.314;2023-02-28T16:22:58;6.70;99.90
18160;DHT22;9205;52.032;4.314;2023-02-28T16:25:34;6.70;99.90
18160;DHT22;9205;52.032;4.314;2023-02-28T16:28:11;6.70;99.90
18160;DHT22;9205;52.032;4.314;2023-02-28T16:30:44;6.70;99.90
18160;DHT22;9205;52.032;4.314;2023-02-28T16:33:16;6.60;99.90
18160;DHT22;9205;52.032;4.314;2023-02-28T16:35:45;6.60;99.90
18160;DHT22;9205;52.032;4.314;2023-02-28T16:38:25;6.50;99.90
18160;DHT22;9205;52.032;4.314;2023-02-28T16:40:55;6.60;99.90
18160;DHT22;9205;52.032;4.314;2023-02-28T16:43:29;6.50;99.90
18160;DHT22;9205;52.032;4.314;2023-02-28T16:46:00;6.50;99.90
18160;DHT22;9205;52.032;4.314;2023-02-28T16:48:35;6.50;99.90
18160;DHT22;9205;52.032;4.314;2023-02-28T16:51:08;6.50;99.90
18160;DHT22;9205;52.032;4.314;2023-02-28T16:53:42;6.40;99.90
18160;DHT22;9205;52.032;4.314;2023-02-28T16:56:16;6.40;99.90
18160;DHT22;9205;52.032;4.314;2023-02-28T16:58:48;6.30;99.90
18160;DHT22;9205;52.032;4.314;2023-02-28T17:01:21;6.30;99.90
18160;DHT22;9205;52.032;4.314;2023-02-28T17:03:56;6.20;99.90
18160;DHT22;9205;52.032;4.314;2023-02-28T17:06:32;6.20;99.90
18160;DHT22;9205;52.032;4.314;2023-02-28T17:09:02;6.10;99.90
18160;DHT22;9205;52.032;4.314;2023-02-28T17:11:32;6.00;99.90
18160;DHT22;9205;52.032;4.314;2023-02-28T17:14:00;6.00;99.90
18160;DHT22;9205;52.032;4.314;2023-02-28T17:16:33;6.00;99.90
18160;DHT22;9205;52.032;4.314;2023-02-28T17:19:08;5.90;99.90
18160;DHT22;9205;52.032;4.314;2023-02-28T17:21:40;5.90;99.90
18160;DHT22;9205;52.032;4.314;2023-02-28T17:24:09;5.80;99.90
18160;DHT22;9205;52.032;4.314;2023-02-28T17:26:39;5.70;99.90